createdAt,value
2017-03-25T00:00:05.620Z,99.99
2017-03-25T00:01:05.595Z,99.99
2017-03-25T00:02:05.279Z,99.99
2017-03-25T00:03:05.567Z,99.99
2017-03-25T00:04:05.554Z,99.99
2017-03-25T00:05:05.540Z,99.99
2017-03-25T00:06:05.523Z,99.99
2017-03-25T00:07:05.513Z,99.99
2017-03-25T00:08:05.496Z,99.99
2017-03-25T00:09:05.479Z,99.99
2017-03-25T00:10:05.468Z,99.99
2017-03-25T00:11:05.451Z,99.99
2017-03-25T00:12:05.436Z,99.99
2017-03-25T00:13:05.424Z,99.99
2017-03-25T00:14:05.410Z,99.99
2017-03-25T00:15:05.399Z,99.99
2017-03-25T00:16:05.378Z,99.99
2017-03-25T00:17:05.368Z,99.99
2017-03-25T00:18:05.355Z,99.99
2017-03-25T00:19:05.343Z,99.99
2017-03-25T00:20:05.325Z,99.99
2017-03-25T00:21:05.312Z,99.99
2017-03-25T00:22:05.296Z,99.99
2017-03-25T00:23:05.018Z,99.99
2017-03-25T00:24:05.268Z,99.99
2017-03-25T00:25:05.256Z,99.99
2017-03-25T00:26:05.247Z,99.99
2017-03-25T00:27:05.225Z,99.99
2017-03-25T00:28:05.210Z,99.99
2017-03-25T00:29:05.202Z,99.99
2017-03-25T00:30:04.881Z,99.99
2017-03-25T00:31:05.172Z,99.99
2017-03-25T00:32:05.156Z,99.99
2017-03-25T00:33:05.140Z,99.99
2017-03-25T00:34:05.130Z,99.99
2017-03-25T00:35:05.115Z,99.99
2017-03-25T00:36:05.099Z,99.99
2017-03-25T00:37:05.086Z,99.99
2017-03-25T00:38:05.071Z,99.99
2017-03-25T00:39:05.056Z,99.99
2017-03-25T00:40:05.043Z,99.99
2017-03-25T00:41:05.033Z,99.99
2017-03-25T00:42:05.014Z,99.99
2017-03-25T00:43:05.002Z,99.99
2017-03-25T00:44:04.989Z,99.99
2017-03-25T00:45:04.974Z,99.99
2017-03-25T00:46:04.962Z,99.99
2017-03-25T00:47:04.944Z,99.99
2017-03-25T00:48:04.933Z,99.99
2017-03-25T00:49:04.915Z,99.99
2017-03-25T00:50:04.907Z,99.99
2017-03-25T00:51:04.898Z,99.99
2017-03-25T00:52:04.873Z,99.99
2017-03-25T00:53:04.867Z,99.99
2017-03-25T00:54:04.849Z,99.99
2017-03-25T00:55:04.833Z,99.99
2017-03-25T00:56:04.822Z,99.99
2017-03-25T00:57:04.806Z,99.99
2017-03-25T00:58:04.793Z,99.99
2017-03-25T00:59:04.777Z,99.99
2017-03-25T01:00:04.772Z,99.99
2017-03-25T01:01:04.752Z,99.99
2017-03-25T01:02:04.745Z,99.99
2017-03-25T01:03:04.724Z,99.99
2017-03-25T01:04:04.718Z,99.99
2017-03-25T01:05:04.697Z,99.99
2017-03-25T01:06:04.683Z,99.99
2017-03-25T01:07:04.669Z,99.99
2017-03-25T01:08:04.664Z,99.99
2017-03-25T01:09:04.640Z,99.99
2017-03-25T01:10:04.630Z,99.99
2017-03-25T01:11:04.612Z,99.99
2017-03-25T01:12:04.604Z,99.99
2017-03-25T01:13:04.589Z,99.99
2017-03-25T01:14:04.576Z,99.99
2017-03-25T01:15:04.562Z,99.99
2017-03-25T01:16:04.546Z,99.99
2017-03-25T01:17:04.538Z,99.99
2017-03-25T01:18:04.518Z,99.99
2017-03-25T01:19:04.507Z,99.99
2017-03-25T01:20:04.492Z,99.99
2017-03-25T01:21:04.476Z,99.99
2017-03-25T01:22:04.462Z,99.99
2017-03-25T01:23:04.453Z,99.99
2017-03-25T01:24:04.435Z,99.99
2017-03-25T01:25:04.424Z,99.99
2017-03-25T01:26:04.409Z,99.99
2017-03-25T01:27:04.395Z,99.99
2017-03-25T01:28:04.426Z,99.99
2017-03-25T01:29:04.365Z,99.99
2017-03-25T01:30:04.353Z,99.99
2017-03-25T01:31:04.339Z,99.99
2017-03-25T01:32:04.319Z,99.99
2017-03-25T01:33:04.305Z,99.99
2017-03-25T01:34:04.291Z,99.99
2017-03-25T01:35:04.281Z,99.99
2017-03-25T01:36:04.265Z,99.99
2017-03-25T01:37:04.249Z,99.99
2017-03-25T01:38:04.233Z,99.99
2017-03-25T01:39:04.221Z,99.99
2017-03-25T01:40:04.204Z,99.99
2017-03-25T01:41:04.189Z,99.99
2017-03-25T01:42:04.177Z,99.99
2017-03-25T01:43:04.162Z,99.99
2017-03-25T01:44:04.146Z,99.99
2017-03-25T01:45:04.137Z,99.99
2017-03-25T01:46:04.120Z,99.99
2017-03-25T01:47:04.104Z,99.99
2017-03-25T01:48:04.088Z,99.99
2017-03-25T01:49:04.112Z,99.99
2017-03-25T01:50:04.061Z,99.99
2017-03-25T01:51:04.045Z,99.99
2017-03-25T01:52:04.031Z,99.99
2017-03-25T01:53:04.014Z,99.99
2017-03-25T01:54:03.999Z,99.99
2017-03-25T01:55:03.986Z,99.99
2017-03-25T01:56:03.973Z,99.99
2017-03-25T01:57:03.961Z,99.99
2017-03-25T01:58:03.947Z,99.99
2017-03-25T01:59:03.931Z,99.99
2017-03-25T02:00:03.917Z,99.99
2017-03-25T02:01:03.899Z,99.99
2017-03-25T02:02:03.889Z,99.99
2017-03-25T02:03:03.875Z,99.99
2017-03-25T02:04:03.859Z,99.99
2017-03-25T02:05:03.843Z,99.99
2017-03-25T02:06:03.831Z,99.99
2017-03-25T02:07:03.816Z,99.99
2017-03-25T02:08:03.802Z,99.99
2017-03-25T02:09:03.786Z,99.99
2017-03-25T02:10:03.773Z,99.99
2017-03-25T02:11:03.760Z,99.99
2017-03-25T02:12:03.747Z,99.99
2017-03-25T02:13:03.731Z,99.99
2017-03-25T02:14:03.718Z,99.99
2017-03-25T02:15:03.704Z,99.99
2017-03-25T02:16:03.742Z,99.99
2017-03-25T02:17:03.686Z,99.99
2017-03-25T02:18:03.658Z,99.99
2017-03-25T02:19:03.646Z,99.99
2017-03-25T02:20:03.629Z,99.99
2017-03-25T02:21:03.619Z,99.99
2017-03-25T02:22:03.604Z,99.99
2017-03-25T02:23:03.586Z,99.99
2017-03-25T02:24:03.573Z,99.99
2017-03-25T02:25:03.560Z,99.99
2017-03-25T02:26:03.545Z,99.99
2017-03-25T02:27:03.533Z,99.99
2017-03-25T02:28:03.518Z,99.99
2017-03-25T02:29:03.510Z,99.99
2017-03-25T02:30:03.491Z,99.99
2017-03-25T02:31:03.479Z,99.99
2017-03-25T02:32:03.462Z,99.99
2017-03-25T02:33:03.451Z,99.99
2017-03-25T02:34:03.436Z,99.99
2017-03-25T02:35:03.426Z,99.99
2017-03-25T02:36:03.410Z,99.99
2017-03-25T02:37:03.396Z,99.99
2017-03-25T02:38:03.381Z,99.99
2017-03-25T02:39:03.367Z,99.99
2017-03-25T02:40:03.352Z,99.99
2017-03-25T02:41:03.340Z,99.99
2017-03-25T02:42:03.326Z,99.99
2017-03-25T02:43:03.316Z,99.99
2017-03-25T02:44:03.297Z,99.99
2017-03-25T02:45:03.282Z,99.99
2017-03-25T02:46:03.272Z,99.99
2017-03-25T02:47:03.258Z,99.99
2017-03-25T02:48:03.249Z,99.99
2017-03-25T02:49:03.228Z,99.99
2017-03-25T02:50:03.217Z,99.99
2017-03-25T02:51:03.205Z,99.99
2017-03-25T02:52:03.186Z,99.99
2017-03-25T02:53:03.173Z,99.99
2017-03-25T02:54:03.156Z,99.99
2017-03-25T02:55:03.148Z,99.99
2017-03-25T02:56:03.129Z,99.99
2017-03-25T02:57:03.114Z,99.99
2017-03-25T02:58:03.102Z,99.99
2017-03-25T02:59:03.083Z,99.99
2017-03-25T03:00:03.069Z,99.99
2017-03-25T03:01:03.058Z,99.99
2017-03-25T03:02:03.040Z,99.99
2017-03-25T03:03:03.026Z,99.99
2017-03-25T03:04:03.014Z,99.99
2017-03-25T03:05:03.001Z,99.99
2017-03-25T03:06:02.985Z,99.99
2017-03-25T03:07:02.973Z,99.99
2017-03-25T03:08:02.953Z,99.99
2017-03-25T03:09:02.942Z,99.99
2017-03-25T03:10:02.624Z,99.99
2017-03-25T03:11:02.914Z,99.99
2017-03-25T03:12:02.896Z,99.99
2017-03-25T03:13:02.881Z,99.99
2017-03-25T03:14:02.866Z,99.99
2017-03-25T03:15:02.858Z,99.99
2017-03-25T03:16:02.842Z,99.99
2017-03-25T03:17:02.825Z,99.99
2017-03-25T03:18:02.809Z,99.99
2017-03-25T03:19:02.794Z,99.99
2017-03-25T03:20:02.782Z,99.99
2017-03-25T03:21:02.766Z,99.99
2017-03-25T03:22:02.750Z,99.99
2017-03-25T03:23:02.739Z,99.99
2017-03-25T03:24:02.725Z,99.99
2017-03-25T03:25:02.706Z,99.99
2017-03-25T03:26:02.699Z,99.99
2017-03-25T03:27:02.680Z,99.99
2017-03-25T03:28:02.666Z,99.99
2017-03-25T03:29:02.653Z,99.99
2017-03-25T03:30:02.641Z,99.99
2017-03-25T03:31:02.623Z,99.99
2017-03-25T03:32:02.611Z,99.99
2017-03-25T03:33:02.595Z,99.99
2017-03-25T03:34:02.583Z,99.99
2017-03-25T03:35:02.568Z,99.99
2017-03-25T03:36:02.600Z,99.99
2017-03-25T03:37:02.539Z,99.99
2017-03-25T03:38:02.523Z,99.99
2017-03-25T03:39:02.512Z,99.99
2017-03-25T03:40:02.493Z,99.99
2017-03-25T03:41:02.479Z,99.99
2017-03-25T03:42:02.470Z,99.99
2017-03-25T03:43:02.454Z,99.99
2017-03-25T03:44:02.439Z,99.99
2017-03-25T03:45:02.424Z,99.99
2017-03-25T03:46:02.411Z,99.99
2017-03-25T03:47:02.398Z,99.99
2017-03-25T03:48:02.381Z,99.99
2017-03-25T03:49:02.370Z,99.99
2017-03-25T03:50:02.353Z,99.99
2017-03-25T03:51:02.338Z,99.99
2017-03-25T03:52:02.322Z,99.99
2017-03-25T03:53:02.337Z,99.99
2017-03-25T03:54:02.297Z,99.99
2017-03-25T03:55:02.285Z,99.99
2017-03-25T03:56:02.270Z,99.99
2017-03-25T03:57:02.256Z,99.99
2017-03-25T03:58:02.242Z,99.99
2017-03-25T03:59:02.227Z,99.99
2017-03-25T04:00:02.217Z,99.99
2017-03-25T04:01:02.202Z,99.99
2017-03-25T04:02:02.185Z,99.99
2017-03-25T04:03:02.176Z,99.99
2017-03-25T04:04:02.160Z,99.99
2017-03-25T04:05:02.151Z,99.99
2017-03-25T04:06:02.137Z,99.99
2017-03-25T04:07:01.817Z,99.99
2017-03-25T04:08:02.109Z,99.99
2017-03-25T04:09:02.093Z,99.99
2017-03-25T04:10:02.079Z,99.99
2017-03-25T04:11:02.070Z,99.99
2017-03-25T04:12:02.052Z,99.99
2017-03-25T04:13:02.039Z,99.99
2017-03-25T04:14:02.028Z,99.99
2017-03-25T04:15:02.018Z,99.99
2017-03-25T04:16:02.004Z,99.99
2017-03-25T04:17:01.989Z,99.99
2017-03-25T04:18:01.982Z,99.99
2017-03-25T04:19:01.962Z,99.99
2017-03-25T04:20:01.958Z,99.99
2017-03-25T04:21:01.937Z,99.99
2017-03-25T04:22:01.926Z,99.99
2017-03-25T04:23:01.912Z,99.99
2017-03-25T04:24:01.903Z,99.99
2017-03-25T04:25:01.884Z,99.99
2017-03-25T04:26:01.872Z,99.99
2017-03-25T04:27:01.858Z,99.99
2017-03-25T04:28:01.847Z,99.99
2017-03-25T04:29:01.838Z,99.99
2017-03-25T04:30:01.825Z,99.99
2017-03-25T04:31:01.507Z,99.99
2017-03-25T04:32:01.796Z,99.99
2017-03-25T04:33:01.784Z,99.99
2017-03-25T04:34:01.777Z,99.99
2017-03-25T04:35:01.756Z,99.99
2017-03-25T04:36:01.742Z,99.99
2017-03-25T04:37:01.731Z,99.99
2017-03-25T04:38:01.714Z,99.99
2017-03-25T04:39:01.704Z,99.99
2017-03-25T04:40:01.691Z,99.99
2017-03-25T04:41:01.680Z,99.99
2017-03-25T04:42:01.672Z,99.99
2017-03-25T04:43:01.663Z,99.99
2017-03-25T04:44:01.639Z,99.99
2017-03-25T04:45:01.630Z,99.99
2017-03-25T04:46:01.613Z,99.99
2017-03-25T04:47:01.602Z,99.99
2017-03-25T04:48:01.589Z,99.99
2017-03-25T04:49:01.573Z,99.99
2017-03-25T04:50:01.565Z,99.99
2017-03-25T04:51:01.557Z,99.99
2017-03-25T04:52:01.536Z,99.99
2017-03-25T04:53:01.224Z,99.99
2017-03-25T04:54:01.511Z,99.99
2017-03-25T04:55:01.503Z,99.99
2017-03-25T04:56:01.483Z,99.99
2017-03-25T04:57:01.468Z,99.99
2017-03-25T04:58:01.460Z,99.99
2017-03-25T04:59:01.446Z,99.99
2017-03-25T05:00:01.434Z,99.99
2017-03-25T05:01:01.430Z,99.99
2017-03-25T05:02:01.406Z,99.99
2017-03-25T05:03:01.392Z,99.99
2017-03-25T05:04:01.381Z,99.99
2017-03-25T05:05:01.369Z,99.99
2017-03-25T05:06:01.353Z,99.99
2017-03-25T05:07:01.382Z,99.99
2017-03-25T05:08:01.330Z,99.99
2017-03-25T05:09:01.013Z,99.99
2017-03-25T05:10:00.999Z,99.99
2017-03-25T05:11:00.987Z,99.99
2017-03-25T05:12:01.274Z,99.99
2017-03-25T05:13:01.264Z,99.99
2017-03-25T05:14:01.253Z,99.99
2017-03-25T05:15:01.237Z,99.99
2017-03-25T05:16:01.227Z,99.99
2017-03-25T05:17:01.213Z,99.99
2017-03-25T05:18:01.198Z,99.99
2017-03-25T05:19:01.184Z,99.99
2017-03-25T05:20:01.175Z,99.99
2017-03-25T05:21:01.157Z,99.99
2017-03-25T05:22:01.143Z,99.99
2017-03-25T05:23:01.130Z,99.99
2017-03-25T05:24:01.120Z,99.99
2017-03-25T05:25:01.103Z,99.99
2017-03-25T05:26:01.088Z,99.99
2017-03-25T05:27:01.073Z,99.99
2017-03-25T05:28:01.063Z,99.99
2017-03-25T05:29:01.053Z,99.99
2017-03-25T05:30:01.037Z,99.99
2017-03-25T05:31:01.024Z,99.99
2017-03-25T05:32:01.015Z,99.99
2017-03-25T05:33:00.994Z,99.99
2017-03-25T05:34:00.986Z,99.99
2017-03-25T05:35:00.968Z,99.99
2017-03-25T05:36:00.957Z,99.99
2017-03-25T05:37:00.942Z,99.99
2017-03-25T05:38:00.934Z,99.99
2017-03-25T05:39:00.917Z,99.99
2017-03-25T05:40:00.909Z,99.99
2017-03-25T05:41:00.893Z,99.99
2017-03-25T05:42:00.878Z,99.99
2017-03-25T05:43:00.867Z,99.99
2017-03-25T05:44:00.852Z,99.99
2017-03-25T05:45:00.839Z,99.99
2017-03-25T05:46:00.828Z,99.99
2017-03-25T05:47:00.817Z,99.99
2017-03-25T05:48:00.803Z,99.99
2017-03-25T05:49:00.798Z,99.99
2017-03-25T05:50:00.784Z,99.99
2017-03-25T05:51:00.763Z,99.99
2017-03-25T05:52:00.757Z,99.99
2017-03-25T05:53:00.743Z,99.99
2017-03-25T05:54:00.728Z,99.99
2017-03-25T05:55:00.717Z,99.99
2017-03-25T05:56:00.701Z,99.99
2017-03-25T05:57:00.695Z,99.99
2017-03-25T05:58:00.683Z,99.99
2017-03-25T05:59:00.670Z,99.99
2017-03-25T06:00:00.659Z,99.99
2017-03-25T06:01:00.647Z,99.99
2017-03-25T06:02:00.633Z,99.99
2017-03-25T06:03:00.624Z,99.99
2017-03-25T06:04:00.614Z,99.99
2017-03-25T06:05:00.599Z,99.99
2017-03-25T06:06:00.584Z,99.99
2017-03-25T06:07:00.271Z,99.99
2017-03-25T06:08:00.259Z,99.99
2017-03-25T06:09:00.549Z,99.99
2017-03-25T06:10:00.540Z,99.99
2017-03-25T06:11:00.526Z,99.99
2017-03-25T06:12:00.517Z,99.99
2017-03-25T06:13:00.502Z,99.99
2017-03-25T06:14:00.491Z,99.99
2017-03-25T06:15:00.481Z,99.99
2017-03-25T06:16:00.470Z,99.99
2017-03-25T06:17:00.456Z,99.99
2017-03-25T06:18:00.448Z,99.99
2017-03-25T06:19:00.443Z,99.99
2017-03-25T06:20:00.429Z,99.99
2017-03-25T06:21:00.415Z,99.99
2017-03-25T06:22:00.405Z,99.99
2017-03-25T06:23:00.396Z,99.99
2017-03-25T06:24:00.391Z,99.99
2017-03-25T06:25:00.371Z,99.99
2017-03-25T06:26:00.363Z,99.99
2017-03-25T06:27:00.353Z,99.99
2017-03-25T06:28:00.340Z,99.99
2017-03-25T06:29:00.329Z,99.99
2017-03-25T06:30:00.322Z,99.99
2017-03-25T06:31:00.311Z,99.99
2017-03-25T06:32:00.298Z,99.99
2017-03-25T06:33:00.292Z,99.99
2017-03-25T06:34:00.284Z,99.99
2017-03-25T06:35:00.268Z,99.99
2017-03-25T06:36:00.259Z,99.99
2017-03-25T06:37:00.256Z,99.99
2017-03-25T06:38:00.246Z,99.99
2017-03-25T06:39:00.246Z,99.99
2017-03-25T06:40:00.227Z,99.99
2017-03-25T06:41:00.214Z,99.99
2017-03-25T06:42:00.208Z,99.99
2017-03-25T06:43:00.197Z,99.99
2017-03-25T06:44:00.190Z,99.99
2017-03-25T06:45:00.186Z,99.99
2017-03-25T06:46:00.171Z,99.99
2017-03-25T06:47:00.168Z,99.99
2017-03-25T06:48:00.162Z,99.99
2017-03-25T06:49:00.156Z,99.99
2017-03-25T06:50:00.145Z,99.99
2017-03-25T06:51:00.137Z,99.99
2017-03-25T06:52:00.128Z,99.99
2017-03-25T06:53:00.121Z,99.99
2017-03-25T06:54:00.117Z,99.99
2017-03-25T06:55:00.111Z,99.99
2017-03-25T06:56:00.105Z,99.99
2017-03-25T06:57:00.092Z,99.99
2017-03-25T06:58:00.088Z,99.99
2017-03-25T06:59:00.083Z,99.99
2017-03-25T07:00:00.073Z,99.99
2017-03-25T07:01:00.069Z,99.99
2017-03-25T07:02:00.060Z,99.99
2017-03-25T07:03:00.061Z,99.99
2017-03-25T07:04:00.049Z,99.99
2017-03-25T07:05:00.044Z,99.99
2017-03-25T07:06:00.039Z,99.99
2017-03-25T07:07:00.031Z,99.99
2017-03-25T07:08:00.024Z,99.99
2017-03-25T07:09:00.018Z,99.99
2017-03-25T07:10:00.012Z,99.99
2017-03-25T07:11:00.006Z,99.99
2017-03-25T07:12:00.000Z,99.99
2017-03-25T07:12:59.997Z,99.99
2017-03-25T07:13:59.987Z,99.99
2017-03-25T07:14:59.981Z,99.99
2017-03-25T07:15:59.974Z,99.99
2017-03-25T07:16:59.971Z,99.99
2017-03-25T07:17:59.968Z,99.99
2017-03-25T07:18:59.966Z,99.99
2017-03-25T07:19:59.954Z,99.99
2017-03-25T07:20:59.948Z,99.99
2017-03-25T07:21:59.941Z,99.99
2017-03-25T07:22:59.940Z,99.99
2017-03-25T07:23:59.930Z,99.99
2017-03-25T07:24:59.924Z,99.99
2017-03-25T07:25:59.919Z,99.99
2017-03-25T07:26:59.911Z,99.9
2017-03-25T07:27:59.914Z,99.85
2017-03-25T07:28:59.904Z,99.99
2017-03-25T07:29:59.896Z,99.95
2017-03-25T07:30:59.894Z,99.99
2017-03-25T07:31:59.888Z,99.99
2017-03-25T07:32:59.882Z,99.7
2017-03-25T07:33:59.873Z,99.89
2017-03-25T07:34:59.871Z,99.51
2017-03-25T07:35:59.866Z,99.99
2017-03-25T07:36:59.858Z,99.61
2017-03-25T07:37:59.854Z,99.08
2017-03-25T07:38:59.851Z,99.62
2017-03-25T07:39:59.845Z,98.9
2017-03-25T07:40:59.836Z,99.24
2017-03-25T07:41:59.837Z,98.85
2017-03-25T07:42:59.831Z,98.38
2017-03-25T07:43:59.828Z,98.85
2017-03-25T07:44:59.823Z,98.14
2017-03-25T07:45:59.812Z,98.61
2017-03-25T07:46:59.814Z,98.61
2017-03-25T07:47:59.807Z,98.75
2017-03-25T07:48:59.803Z,98.37
2017-03-25T07:49:59.798Z,97.94
2017-03-25T07:50:59.791Z,98.38
2017-03-25T07:51:59.796Z,98.13
2017-03-25T07:52:59.786Z,97.99
2017-03-25T07:53:59.782Z,98.09
2017-03-25T07:54:59.790Z,97.47
2017-03-25T07:55:59.773Z,97.23
2017-03-25T07:56:59.773Z,97.33
2017-03-25T07:57:59.765Z,97.37
2017-03-25T07:58:59.764Z,97.28
2017-03-25T07:59:59.759Z,97.28
2017-03-25T08:00:59.751Z,97.13
2017-03-25T08:01:59.752Z,97.13
2017-03-25T08:02:59.749Z,97.33
2017-03-25T08:03:59.748Z,96.99
2017-03-25T08:04:59.738Z,97.13
2017-03-25T08:05:59.736Z,97.56
2017-03-25T08:06:59.727Z,97.41
2017-03-25T08:07:59.730Z,97.46
2017-03-25T08:08:59.724Z,97.27
2017-03-25T08:09:59.717Z,98.03
2017-03-25T08:10:59.710Z,97.78
2017-03-25T08:11:59.706Z,97.74
2017-03-25T08:12:59.403Z,97.78
2017-03-25T08:13:59.696Z,97.69
2017-03-25T08:14:59.689Z,97.6
2017-03-25T08:15:59.682Z,97.64
2017-03-25T08:16:59.674Z,97.55
2017-03-25T08:17:59.671Z,97.6
2017-03-25T08:18:59.659Z,97.97
2017-03-25T08:19:59.656Z,97.88
2017-03-25T08:20:59.639Z,97.45
2017-03-25T08:21:59.639Z,97.17
2017-03-25T08:22:59.628Z,97.46
2017-03-25T08:23:59.620Z,97.41
2017-03-25T08:24:59.614Z,97.36
2017-03-25T08:25:59.611Z,97.56
2017-03-25T08:26:59.603Z,97.27
2017-03-25T08:27:59.593Z,96.94
2017-03-25T08:28:59.581Z,96.8
2017-03-25T08:29:59.579Z,97.08
2017-03-25T08:30:59.568Z,96.84
2017-03-25T08:31:59.567Z,97.03
2017-03-25T08:32:59.556Z,96.46
2017-03-25T08:33:59.548Z,96.22
2017-03-25T08:34:59.240Z,96.46
2017-03-25T08:35:59.536Z,96.22
2017-03-25T08:36:59.532Z,96.03
2017-03-25T08:37:59.524Z,96.17
2017-03-25T08:38:59.521Z,96.03
2017-03-25T08:39:59.513Z,95.84
2017-03-25T08:40:59.508Z,95.56
2017-03-25T08:41:59.507Z,95.84
2017-03-25T08:42:59.500Z,95.41
2017-03-25T08:43:59.499Z,95.61
2017-03-25T08:44:59.493Z,96.13
2017-03-25T08:45:59.489Z,95.41
2017-03-25T08:46:59.481Z,95.27
2017-03-25T08:47:59.475Z,95.36
2017-03-25T08:48:59.469Z,95.56
2017-03-25T08:49:59.465Z,94.74
2017-03-25T08:50:59.466Z,95.12
2017-03-25T08:51:59.461Z,94.5
2017-03-25T08:52:59.456Z,94.79
2017-03-25T08:53:59.451Z,94.84
2017-03-25T08:54:59.446Z,94.84
2017-03-25T08:55:59.442Z,94.79
2017-03-25T08:56:59.440Z,94.35
2017-03-25T08:57:59.441Z,94.21
2017-03-25T08:58:59.435Z,93.83
2017-03-25T08:59:59.429Z,93.68
2017-03-25T09:00:59.427Z,93.88
2017-03-25T09:01:59.429Z,93.54
2017-03-25T09:02:59.420Z,93.35
2017-03-25T09:03:59.421Z,93.35
2017-03-25T09:04:59.416Z,93.69
2017-03-25T09:05:59.412Z,93.5
2017-03-25T09:06:59.412Z,93.79
2017-03-25T09:07:59.405Z,93.54
2017-03-25T09:08:59.406Z,92.97
2017-03-25T09:09:59.401Z,93.12
2017-03-25T09:10:59.396Z,92.97
2017-03-25T09:11:59.400Z,92.97
2017-03-25T09:12:59.392Z,92.97
2017-03-25T09:13:59.391Z,93.07
2017-03-25T09:14:59.388Z,92.59
2017-03-25T09:15:59.380Z,92.88
2017-03-25T09:16:59.378Z,92.78
2017-03-25T09:17:59.378Z,92.69
2017-03-25T09:18:59.376Z,92.44
2017-03-25T09:19:59.069Z,92.54
2017-03-25T09:20:59.366Z,92.83
2017-03-25T09:21:59.063Z,92.74
2017-03-25T09:22:59.365Z,92.11
2017-03-25T09:23:59.357Z,92.49
2017-03-25T09:24:59.051Z,92.07
2017-03-25T09:25:59.049Z,92.54
2017-03-25T09:26:59.046Z,92.59
2017-03-25T09:27:59.347Z,92.11
2017-03-25T09:28:59.042Z,92.3
2017-03-25T09:29:59.037Z,92.35
2017-03-25T09:30:59.032Z,91.73
2017-03-25T09:31:59.028Z,92.02
2017-03-25T09:32:59.028Z,92.11
2017-03-25T09:33:59.325Z,91.58
2017-03-25T09:34:59.021Z,91.78
2017-03-25T09:35:59.016Z,91.49
2017-03-25T09:36:59.014Z,91.68
2017-03-25T09:37:59.310Z,91.92
2017-03-25T09:38:59.008Z,91.73
2017-03-25T09:39:59.002Z,91.44
2017-03-25T09:40:59.309Z,91.11
2017-03-25T09:41:58.999Z,91.05
2017-03-25T09:42:58.996Z,91.25
2017-03-25T09:43:58.994Z,91.05
2017-03-25T09:44:58.988Z,90.86
2017-03-25T09:45:59.285Z,90.91
2017-03-25T09:46:59.285Z,90.86
2017-03-25T09:47:59.287Z,90.67
2017-03-25T09:48:59.279Z,91.15
2017-03-25T09:49:59.283Z,90.63
2017-03-25T09:50:59.268Z,90.77
2017-03-25T09:51:59.268Z,90.49
2017-03-25T09:52:59.264Z,90.49
2017-03-25T09:53:59.263Z,90.73
2017-03-25T09:54:59.258Z,90.48
2017-03-25T09:55:59.252Z,90.09
2017-03-25T09:56:59.255Z,90.62
2017-03-25T09:57:59.247Z,90.19
2017-03-25T09:58:59.247Z,90
2017-03-25T09:59:59.241Z,90.14
2017-03-25T10:00:59.238Z,89.99
2017-03-25T10:01:59.239Z,89.89
2017-03-25T10:02:59.236Z,89.89
2017-03-25T10:03:59.227Z,89.26
2017-03-25T10:04:59.227Z,89.26
2017-03-25T10:05:59.224Z,88.98
2017-03-25T10:06:59.223Z,89.4
2017-03-25T10:07:59.220Z,89.02
2017-03-25T10:08:59.215Z,88.59
2017-03-25T10:09:59.219Z,88.65
2017-03-25T10:10:59.213Z,88.6
2017-03-25T10:11:59.212Z,88.75
2017-03-25T10:12:59.206Z,88.84
2017-03-25T10:13:59.205Z,88.41
2017-03-25T10:14:59.202Z,88.41
2017-03-25T10:15:59.202Z,88.22
2017-03-25T10:16:59.196Z,88.02
2017-03-25T10:17:59.192Z,88.12
2017-03-25T10:18:59.197Z,88.08
2017-03-25T10:19:59.188Z,88.08
2017-03-25T10:20:59.184Z,87.84
2017-03-25T10:21:59.184Z,87.68
2017-03-25T10:22:59.181Z,87.68
2017-03-25T10:23:59.178Z,87.92
2017-03-25T10:24:59.175Z,87.44
2017-03-25T10:25:59.174Z,87.4
2017-03-25T10:26:59.168Z,87.35
2017-03-25T10:27:59.167Z,86.72
2017-03-25T10:28:59.163Z,86.97
2017-03-25T10:29:59.162Z,87.08
2017-03-25T10:30:59.155Z,87.03
2017-03-25T10:31:59.158Z,86.51
2017-03-25T10:32:59.153Z,86.14
2017-03-25T10:33:59.154Z,86.24
2017-03-25T10:34:59.152Z,85.97
2017-03-25T10:35:59.141Z,85.87
2017-03-25T10:36:59.142Z,86.73
2017-03-25T10:37:59.134Z,86.44
2017-03-25T10:38:59.128Z,86.58
2017-03-25T10:39:59.128Z,86.82
2017-03-25T10:40:59.122Z,86.67
2017-03-25T10:41:59.122Z,86.71
2017-03-25T10:42:59.116Z,86.76
2017-03-25T10:43:59.113Z,86.94
2017-03-25T10:44:59.109Z,86.66
2017-03-25T10:45:59.106Z,86.14
2017-03-25T10:46:59.100Z,86.23
2017-03-25T10:47:59.093Z,86.9
2017-03-25T10:48:59.093Z,86.76
2017-03-25T10:49:59.087Z,86.8
2017-03-25T10:50:59.082Z,86.32
2017-03-25T10:51:59.078Z,86.32
2017-03-25T10:52:59.075Z,85.94
2017-03-25T10:53:59.071Z,85.65
2017-03-25T10:54:58.765Z,85.94
2017-03-25T10:55:59.061Z,86.22
2017-03-25T10:56:59.058Z,85.75
2017-03-25T10:57:59.056Z,85.44
2017-03-25T10:58:59.056Z,85.49
2017-03-25T10:59:59.047Z,85.83
2017-03-25T11:00:59.045Z,86.02
2017-03-25T11:01:59.032Z,86.25
2017-03-25T11:02:59.031Z,86.06
2017-03-25T11:03:59.028Z,85.77
2017-03-25T11:04:59.022Z,86.1
2017-03-25T11:05:59.012Z,86.01
2017-03-25T11:06:59.013Z,85.77
2017-03-25T11:07:59.004Z,86.01
2017-03-25T11:08:59.005Z,85.91
2017-03-25T11:09:59.000Z,85.72
2017-03-25T11:10:58.991Z,85.06
2017-03-25T11:11:58.989Z,85.46
2017-03-25T11:12:58.987Z,85.46
2017-03-25T11:13:58.977Z,85.64
2017-03-25T11:14:58.969Z,85.5
2017-03-25T11:15:58.968Z,85.97
2017-03-25T11:16:58.957Z,85.97
2017-03-25T11:17:58.956Z,85.46
2017-03-25T11:18:58.948Z,85.03
2017-03-25T11:19:58.943Z,84.7
2017-03-25T11:20:58.936Z,85.37
2017-03-25T11:21:58.934Z,85.47
2017-03-25T11:22:58.925Z,85.71
2017-03-25T11:23:58.918Z,85.66
2017-03-25T11:24:58.910Z,86.08
2017-03-25T11:25:58.903Z,86.6
2017-03-25T11:26:58.899Z,86.41
2017-03-25T11:27:58.898Z,86.26
2017-03-25T11:28:58.888Z,86.3
2017-03-25T11:29:58.878Z,86.59
2017-03-25T11:30:58.872Z,86.45
2017-03-25T11:31:58.866Z,86.26
2017-03-25T11:32:58.858Z,86.4
2017-03-25T11:33:58.853Z,86.02
2017-03-25T11:34:58.852Z,85.51
2017-03-25T11:35:58.840Z,85.52
2017-03-25T11:36:58.833Z,85.57
2017-03-25T11:37:58.829Z,85.28
2017-03-25T11:38:58.826Z,85.11
2017-03-25T11:39:58.513Z,85.96
2017-03-25T11:40:58.504Z,86.24
2017-03-25T11:41:58.799Z,85.99
2017-03-25T11:42:58.793Z,85.86
2017-03-25T11:43:58.791Z,86.1
2017-03-25T11:44:58.776Z,86.52
2017-03-25T11:45:58.971Z,86.76
2017-03-25T11:46:58.762Z,86.61
2017-03-25T11:47:58.761Z,86.84
2017-03-25T11:48:58.751Z,86.94
2017-03-25T11:49:58.951Z,87.41
2017-03-25T11:50:58.734Z,87.46
2017-03-25T11:51:58.727Z,87.07
2017-03-25T11:52:58.721Z,87.27
2017-03-25T11:53:58.715Z,87.32
2017-03-25T11:54:58.705Z,87.74
2017-03-25T11:55:58.702Z,87.31
2017-03-25T11:56:58.691Z,87.21
2017-03-25T11:57:58.383Z,86.55
2017-03-25T11:58:58.679Z,86.28
2017-03-25T11:59:58.728Z,86.95
2017-03-25T12:00:58.663Z,86.8
2017-03-25T12:01:58.661Z,86.52
2017-03-25T12:02:58.652Z,87.34
2017-03-25T12:03:58.651Z,87.47
2017-03-25T12:04:58.638Z,87.13
2017-03-25T12:05:58.631Z,87.13
2017-03-25T12:06:58.324Z,87.52
2017-03-25T12:07:58.616Z,87.94
2017-03-25T12:08:58.612Z,88.08
2017-03-25T12:09:58.600Z,88.27
2017-03-25T12:10:58.630Z,88.03
2017-03-25T12:11:58.588Z,87.13
2017-03-25T12:12:58.579Z,86.99
2017-03-25T12:13:58.574Z,86.72
2017-03-25T12:14:58.564Z,86.77
2017-03-25T12:15:58.556Z,87.24
2017-03-25T12:16:58.550Z,86.91
2017-03-25T12:17:58.541Z,87.24
2017-03-25T12:18:58.531Z,86.91
2017-03-25T12:19:58.523Z,87.16
2017-03-25T12:20:58.517Z,87.49
2017-03-25T12:21:58.504Z,87.82
2017-03-25T12:22:58.497Z,87.72
2017-03-25T12:23:58.705Z,87.58
2017-03-25T12:24:58.483Z,88.53
2017-03-25T12:25:58.466Z,88.53
2017-03-25T12:26:58.461Z,88.9
2017-03-25T12:27:58.459Z,88.43
2017-03-25T12:28:58.141Z,88.81
2017-03-25T12:29:58.433Z,88.62
2017-03-25T12:30:58.426Z,88.43
2017-03-25T12:31:58.416Z,88.95
2017-03-25T12:32:58.405Z,88.85
2017-03-25T12:33:58.300Z,89.04
2017-03-25T12:34:58.393Z,89.33
2017-03-25T12:35:58.379Z,89.66
2017-03-25T12:36:58.373Z,89.61
2017-03-25T12:37:58.367Z,89.89
2017-03-25T12:38:58.356Z,89.51
2017-03-25T12:39:58.348Z,89.09
2017-03-25T12:40:58.336Z,89.37
2017-03-25T12:41:58.334Z,89.7
2017-03-25T12:42:58.324Z,90.46
2017-03-25T12:43:58.317Z,90.41
2017-03-25T12:44:58.310Z,90.36
2017-03-25T12:45:58.296Z,90.74
2017-03-25T12:46:58.290Z,90.12
2017-03-25T12:47:58.287Z,89.94
2017-03-25T12:48:58.273Z,89.89
2017-03-25T12:49:57.967Z,89.79
2017-03-25T12:50:57.959Z,89.94
2017-03-25T12:51:58.255Z,90.03
2017-03-25T12:52:58.257Z,89.98